sensor_id;sensor_type;location;lat;lon;timestamp;pressure;altitude;pressure_sealevel;temperature;humidity
14041;BME280;7095;51.388;6.196;2023-04-06T00:00:51;54415.72;;;-145.32;100.00
14041;BME280;7095;51.388;6.196;2023-04-06T00:03:21;54445.56;;;-145.32;100.00
14041;BME280;7095;51.388;6.196;2023-04-06T00:05:54;54473.41;;;-145.32;100.00
14041;BME280;7095;51.388;6.196;2023-04-06T00:08:22;54497.25;;;-145.32;100.00
14041;BME280;7095;51.388;6.196;2023-04-06T00:10:51;54465.44;;;-145.32;100.00
14041;BME280;7095;51.388;6.196;2023-04-06T00:13:20;54455.50;;;-145.32;100.00
14041;BME280;7095;51.388;6.196;2023-04-06T00:15:48;54533.06;;;-145.32;100.00
14041;BME280;7095;51.388;6.196;2023-04-06T00:18:17;54525.09;;;-145.32;100.00
14041;BME280;7095;51.388;6.196;2023-04-06T00:20:47;54505.22;;;-145.32;100.00
14041;BME280;7095;51.388;6.196;2023-04-06T00:23:18;54495.28;;;-145.32;100.00
14041;BME280;7095;51.388;6.196;2023-04-06T00:25:46;54489.31;;;-145.32;100.00
14041;BME280;7095;51.388;6.196;2023-04-06T00:28:15;54525.09;;;-145.32;100.00
14041;BME280;7095;51.388;6.196;2023-04-06T00:30:43;54566.84;;;-145.32;100.00
14041;BME280;7095;51.388;6.196;2023-04-06T00:33:13;54552.94;;;-145.32;100.00
14041;BME280;7095;51.388;6.196;2023-04-06T00:35:42;54544.97;;;-145.32;100.00
14041;BME280;7095;51.388;6.196;2023-04-06T00:38:12;54552.94;;;-145.32;100.00
14041;BME280;7095;51.388;6.196;2023-04-06T00:40:40;54582.78;;;-145.32;100.00
14041;BME280;7095;51.388;6.196;2023-04-06T00:43:09;54556.91;;;-145.32;100.00
14041;BME280;7095;51.388;6.196;2023-04-06T00:45:39;54568.84;;;-145.32;100.00
14041;BME280;7095;51.388;6.196;2023-04-06T00:48:08;54550.94;;;-145.32;100.00
14041;BME280;7095;51.388;6.196;2023-04-06T00:50:37;54584.75;;;-145.32;100.00
14041;BME280;7095;51.388;6.196;2023-04-06T00:53:05;54556.91;;;-145.32;100.00
14041;BME280;7095;51.388;6.196;2023-04-06T00:55:35;54612.59;;;-145.32;100.00
14041;BME280;7095;51.388;6.196;2023-04-06T00:58:07;54576.81;;;-145.32;100.00
14041;BME280;7095;51.388;6.196;2023-04-06T01:00:45;54612.59;;;-145.32;100.00
14041;BME280;7095;51.388;6.196;2023-04-06T01:03:17;54568.84;;;-145.32;100.00
14041;BME280;7095;51.388;6.196;2023-04-06T01:05:46;54576.81;;;-145.32;100.00
14041;BME280;7095;51.388;6.196;2023-04-06T01:08:21;54616.56;;;-145.32;100.00
14041;BME280;7095;51.388;6.196;2023-04-06T01:10:56;54620.56;;;-145.32;100.00
14041;BME280;7095;51.388;6.196;2023-04-06T01:13:27;54620.56;;;-145.32;100.00
14041;BME280;7095;51.388;6.196;2023-04-06T01:16:02;54556.91;;;-145.32;100.00
14041;BME280;7095;51.388;6.196;2023-04-06T01:18:51;54618.56;;;-145.32;100.00
14041;BME280;7095;51.388;6.196;2023-04-06T01:21:27;54596.69;;;-145.32;100.00
14041;BME280;7095;51.388;6.196;2023-04-06T01:24:16;54588.75;;;-145.32;100.00
14041;BME280;7095;51.388;6.196;2023-04-06T01:27:03;54586.75;;;-145.32;100.00
14041;BME280;7095;51.388;6.196;2023-04-06T01:29:51;54586.75;;;-145.32;100.00
14041;BME280;7095;51.388;6.196;2023-04-06T01:32:47;54600.66;;;-145.32;100.00
14041;BME280;7095;51.388;6.196;2023-04-06T01:35:27;54624.53;;;-145.32;100.00
14041;BME280;7095;51.388;6.196;2023-04-06T01:38:10;54692.16;;;-145.32;100.00
14041;BME280;7095;51.388;6.196;2023-04-06T01:40:40;54678.22;;;-145.32;100.00
14041;BME280;7095;51.388;6.196;2023-04-06T01:43:09;54624.53;;;-145.32;100.00
14041;BME280;7095;51.388;6.196;2023-04-06T01:45:56;54636.47;;;-145.32;100.00
14041;BME280;7095;51.388;6.196;2023-04-06T01:48:31;54644.41;;;-145.32;100.00
14041;BME280;7095;51.388;6.196;2023-04-06T01:51:06;54670.28;;;-145.32;100.00
14041;BME280;7095;51.388;6.196;2023-04-06T01:53:43;54668.28;;;-145.32;100.00
14041;BME280;7095;51.388;6.196;2023-04-06T01:56:14;54628.50;;;-145.32;100.00
14041;BME280;7095;51.388;6.196;2023-04-06T01:58:51;54712.03;;;-145.32;100.00
14041;BME280;7095;51.388;6.196;2023-04-06T02:01:19;54684.19;;;-145.32;100.00
14041;BME280;7095;51.388;6.196;2023-04-06T02:03:55;54688.16;;;-145.32;100.00
14041;BME280;7095;51.388;6.196;2023-04-06T02:06:23;54735.91;;;-145.32;100.00
14041;BME280;7095;51.388;6.196;2023-04-06T02:08:54;54733.91;;;-145.32;100.00
14041;BME280;7095;51.388;6.196;2023-04-06T02:11:24;54741.88;;;-145.32;100.00
14041;BME280;7095;51.388;6.196;2023-04-06T02:13:55;54767.72;;;-145.32;100.00
14041;BME280;7095;51.388;6.196;2023-04-06T02:16:28;54801.53;;;-145.32;100.00
14041;BME280;7095;51.388;6.196;2023-04-06T02:18:57;54793.56;;;-145.32;100.00
14041;BME280;7095;51.388;6.196;2023-04-06T02:21:26;54729.94;;;-145.32;100.00
14041;BME280;7095;51.388;6.196;2023-04-06T02:23:54;54779.66;;;-145.32;100.00
14041;BME280;7095;51.388;6.196;2023-04-06T02:26:24;54783.63;;;-145.32;100.00
14041;BME280;7095;51.388;6.196;2023-04-06T02:28:53;54831.38;;;-145.32;100.00
14041;BME280;7095;51.388;6.196;2023-04-06T02:31:22;54813.47;;;-145.32;100.00
14041;BME280;7095;51.388;6.196;2023-04-06T02:33:51;54841.31;;;-145.32;100.00
14041;BME280;7095;51.388;6.196;2023-04-06T02:36:20;54716.00;;;-145.32;100.00
14041;BME280;7095;51.388;6.196;2023-04-06T02:38:49;54759.78;;;-145.32;100.00
14041;BME280;7095;51.388;6.196;2023-04-06T02:41:17;54775.69;;;-145.32;100.00
14041;BME280;7095;51.388;6.196;2023-04-06T02:43:47;54829.38;;;-145.32;100.00
14041;BME280;7095;51.388;6.196;2023-04-06T02:46:26;54873.13;;;-145.32;100.00
14041;BME280;7095;51.388;6.196;2023-04-06T02:48:54;54875.13;;;-145.32;100.00
14041;BME280;7095;51.388;6.196;2023-04-06T02:51:25;54823.41;;;-145.32;100.00
14041;BME280;7095;51.388;6.196;2023-04-06T02:53:58;54823.41;;;-145.32;100.00
14041;BME280;7095;51.388;6.196;2023-04-06T02:56:27;54805.50;;;-145.32;100.00
14041;BME280;7095;51.388;6.196;2023-04-06T02:58:57;54775.69;;;-145.32;100.00
14041;BME280;7095;51.388;6.196;2023-04-06T03:01:29;54875.13;;;-145.32;100.00
14041;BME280;7095;51.388;6.196;2023-04-06T03:04:01;54857.22;;;-145.32;100.00
14041;BME280;7095;51.388;6.196;2023-04-06T03:06:30;54869.16;;;-145.32;100.00
14041;BME280;7095;51.388;6.196;2023-04-06T03:09:07;54863.19;;;-145.32;100.00
14041;BME280;7095;51.388;6.196;2023-04-06T03:11:38;54897.00;;;-145.32;100.00
14041;BME280;7095;51.388;6.196;2023-04-06T03:14:08;54859.22;;;-145.32;100.00
14041;BME280;7095;51.388;6.196;2023-04-06T03:16:37;54831.38;;;-145.32;100.00
14041;BME280;7095;51.388;6.196;2023-04-06T03:19:05;54839.31;;;-145.32;100.00
14041;BME280;7095;51.388;6.196;2023-04-06T03:21:35;54861.19;;;-145.32;100.00
14041;BME280;7095;51.388;6.196;2023-04-06T03:24:04;54815.47;;;-145.32;100.00
14041;BME280;7095;51.388;6.196;2023-04-06T03:26:33;54819.44;;;-145.32;100.00
14041;BME280;7095;51.388;6.196;2023-04-06T03:29:05;54843.28;;;-145.32;100.00
14041;BME280;7095;51.388;6.196;2023-04-06T03:31:36;54883.06;;;-145.32;100.00
14041;BME280;7095;51.388;6.196;2023-04-06T03:34:43;54899.00;;;-145.32;100.00
14041;BME280;7095;51.388;6.196;2023-04-06T03:37:12;54849.25;;;-145.32;100.00
14041;BME280;7095;51.388;6.196;2023-04-06T03:39:46;54954.69;;;-145.32;100.00
14041;BME280;7095;51.388;6.196;2023-04-06T03:42:20;54958.66;;;-145.32;100.00
14041;BME280;7095;51.388;6.196;2023-04-06T03:44:52;55010.38;;;-145.32;100.00
14041;BME280;7095;51.388;6.196;2023-04-06T03:47:22;55014.34;;;-145.32;100.00
14041;BME280;7095;51.388;6.196;2023-04-06T03:49:56;55056.13;;;-145.32;100.00
14041;BME280;7095;51.388;6.196;2023-04-06T03:52:25;55006.38;;;-145.32;100.00
14041;BME280;7095;51.388;6.196;2023-04-06T03:54:55;55064.06;;;-145.32;100.00
14041;BME280;7095;51.388;6.196;2023-04-06T03:57:24;55070.03;;;-145.32;100.00
14041;BME280;7095;51.388;6.196;2023-04-06T03:59:52;55012.34;;;-145.32;100.00
14041;BME280;7095;51.388;6.196;2023-04-06T04:02:22;54958.66;;;-145.32;100.00
14041;BME280;7095;51.388;6.196;2023-04-06T04:04:51;54950.69;;;-145.32;100.00
14041;BME280;7095;51.388;6.196;2023-04-06T04:07:20;55022.31;;;-145.32;100.00
14041;BME280;7095;51.388;6.196;2023-04-06T04:09:50;54994.47;;;-145.32;100.00
14041;BME280;7095;51.388;6.196;2023-04-06T04:12:19;55046.16;;;-145.32;100.00
14041;BME280;7095;51.388;6.196;2023-04-06T04:14:47;55095.88;;;-145.32;100.00
14041;BME280;7095;51.388;6.196;2023-04-06T04:17:16;55093.91;;;-145.32;100.00
14041;BME280;7095;51.388;6.196;2023-04-06T04:19:46;55097.88;;;-145.32;100.00
14041;BME280;7095;51.388;6.196;2023-04-06T04:22:15;55081.97;;;-145.32;100.00
14041;BME280;7095;51.388;6.196;2023-04-06T04:24:43;55161.53;;;-145.32;100.00
14041;BME280;7095;51.388;6.196;2023-04-06T04:27:12;55219.22;;;-145.32;100.00
14041;BME280;7095;51.388;6.196;2023-04-06T04:29:41;55272.91;;;-145.32;100.00
14041;BME280;7095;51.388;6.196;2023-04-06T04:32:13;55270.94;;;-145.32;100.00
14041;BME280;7095;51.388;6.196;2023-04-06T04:34:42;55296.78;;;-145.32;100.00
14041;BME280;7095;51.388;6.196;2023-04-06T04:37:32;55334.59;;;-145.32;100.00
14041;BME280;7095;51.388;6.196;2023-04-06T04:40:03;55410.16;;;-145.32;100.00
14041;BME280;7095;51.388;6.196;2023-04-06T04:42:42;55436.03;;;-145.32;100.00
14041;BME280;7095;51.388;6.196;2023-04-06T04:45:17;55535.50;;;-145.32;100.00
14041;BME280;7095;51.388;6.196;2023-04-06T04:47:45;55615.06;;;-145.32;100.00
14041;BME280;7095;51.388;6.196;2023-04-06T04:50:15;55627.00;;;-145.32;100.00
14041;BME280;7095;51.388;6.196;2023-04-06T04:52:48;55591.19;;;-145.32;100.00
14041;BME280;7095;51.388;6.196;2023-04-06T04:55:21;55591.19;;;-145.32;100.00
14041;BME280;7095;51.388;6.196;2023-04-06T04:57:53;55648.88;;;-145.32;100.00
14041;BME280;7095;51.388;6.196;2023-04-06T05:00:31;55609.09;;;-145.32;100.00
14041;BME280;7095;51.388;6.196;2023-04-06T05:03:00;55571.28;;;-145.32;100.00
14041;BME280;7095;51.388;6.196;2023-04-06T05:05:31;55523.56;;;-145.32;100.00
14041;BME280;7095;51.388;6.196;2023-04-06T05:08:02;55483.78;;;-145.32;100.00
14041;BME280;7095;51.388;6.196;2023-04-06T05:10:43;55432.06;;;-145.32;100.00
14041;BME280;7095;51.388;6.196;2023-04-06T05:13:13;55432.06;;;-145.32;100.00
14041;BME280;7095;51.388;6.196;2023-04-06T05:15:44;55364.41;;;-145.32;100.00
14041;BME280;7095;51.388;6.196;2023-04-06T05:18:33;55245.06;;;-145.32;100.00
14041;BME280;7095;51.388;6.196;2023-04-06T05:21:03;55125.72;;;-145.32;100.00
14041;BME280;7095;51.388;6.196;2023-04-06T05:24:02;55101.84;;;-145.32;100.00
14041;BME280;7095;51.388;6.196;2023-04-06T05:26:32;54994.47;;;-145.32;100.00
14041;BME280;7095;51.388;6.196;2023-04-06T05:29:06;55012.34;;;-145.32;100.00
14041;BME280;7095;51.388;6.196;2023-04-06T05:31:37;55024.28;;;-145.32;100.00
14041;BME280;7095;51.388;6.196;2023-04-06T05:34:06;54944.72;;;-145.32;100.00
14041;BME280;7095;51.388;6.196;2023-04-06T05:36:37;54908.94;;;-145.32;100.00
14041;BME280;7095;51.388;6.196;2023-04-06T05:39:16;54857.22;;;-145.32;100.00
14041;BME280;7095;51.388;6.196;2023-04-06T05:41:49;54835.34;;;-145.32;100.00
14041;BME280;7095;51.388;6.196;2023-04-06T05:44:28;54791.59;;;-145.32;100.00
14041;BME280;7095;51.388;6.196;2023-04-06T05:47:10;54785.63;;;-145.32;100.00
14041;BME280;7095;51.388;6.196;2023-04-06T05:49:41;54787.63;;;-145.32;100.00
14041;BME280;7095;51.388;6.196;2023-04-06T05:52:16;54735.91;;;-145.32;100.00
14041;BME280;7095;51.388;6.196;2023-04-06T05:54:48;54664.31;;;-145.32;100.00
14041;BME280;7095;51.388;6.196;2023-04-06T05:57:17;54640.44;;;-145.32;100.00
14041;BME280;7095;51.388;6.196;2023-04-06T05:59:47;54600.66;;;-145.32;100.00
14041;BME280;7095;51.388;6.196;2023-04-06T06:02:16;54572.81;;;-145.32;100.00
14041;BME280;7095;51.388;6.196;2023-04-06T06:04:48;54594.69;;;-145.32;100.00
14041;BME280;7095;51.388;6.196;2023-04-06T06:07:17;54521.13;;;-145.32;100.00
14041;BME280;7095;51.388;6.196;2023-04-06T06:09:58;54477.38;;;-145.32;100.00
14041;BME280;7095;51.388;6.196;2023-04-06T06:12:36;54499.25;;;-145.32;100.00
14041;BME280;7095;51.388;6.196;2023-04-06T06:15:06;54499.25;;;-145.32;100.00
14041;BME280;7095;51.388;6.196;2023-04-06T06:17:39;54465.44;;;-145.32;100.00
14041;BME280;7095;51.388;6.196;2023-04-06T06:20:08;54433.63;;;-145.32;100.00
14041;BME280;7095;51.388;6.196;2023-04-06T06:22:37;54393.84;;;-145.32;100.00
14041;BME280;7095;51.388;6.196;2023-04-06T06:25:13;54362.03;;;-145.32;100.00
14041;BME280;7095;51.388;6.196;2023-04-06T06:27:44;54393.84;;;-145.32;100.00
14041;BME280;7095;51.388;6.196;2023-04-06T06:30:16;54348.13;;;-145.32;100.00
14041;BME280;7095;51.388;6.196;2023-04-06T06:32:49;54316.28;;;-145.32;100.00
14041;BME280;7095;51.388;6.196;2023-04-06T06:35:18;54356.06;;;-145.32;100.00
14041;BME280;7095;51.388;6.196;2023-04-06T06:37:48;54278.50;;;-145.32;100.00
14041;BME280;7095;51.388;6.196;2023-04-06T06:40:22;54280.50;;;-145.32;100.00
14041;BME280;7095;51.388;6.196;2023-04-06T06:42:53;54294.41;;;-145.32;100.00
14041;BME280;7095;51.388;6.196;2023-04-06T06:45:30;54250.69;;;-145.32;100.00
14041;BME280;7095;51.388;6.196;2023-04-06T06:48:01;54220.84;;;-145.32;100.00
14041;BME280;7095;51.388;6.196;2023-04-06T06:50:30;54210.91;;;-145.32;100.00
14041;BME280;7095;51.388;6.196;2023-04-06T06:52:59;54210.91;;;-145.32;100.00
14041;BME280;7095;51.388;6.196;2023-04-06T06:55:29;54206.94;;;-145.32;100.00
14041;BME280;7095;51.388;6.196;2023-04-06T06:57:58;54195.00;;;-145.32;100.00
14041;BME280;7095;51.388;6.196;2023-04-06T07:00:27;54171.13;;;-145.32;100.00
14041;BME280;7095;51.388;6.196;2023-04-06T07:02:56;54131.38;;;-145.32;100.00
14041;BME280;7095;51.388;6.196;2023-04-06T07:05:25;54139.31;;;-145.32;100.00
14041;BME280;7095;51.388;6.196;2023-04-06T07:07:57;54115.47;;;-145.32;100.00
14041;BME280;7095;51.388;6.196;2023-04-06T07:10:26;54125.41;;;-145.32;100.00
14041;BME280;7095;51.388;6.196;2023-04-06T07:12:56;54119.44;;;-145.32;100.00
14041;BME280;7095;51.388;6.196;2023-04-06T07:15:25;54087.63;;;-145.32;100.00
14041;BME280;7095;51.388;6.196;2023-04-06T07:17:53;54095.56;;;-145.32;100.00
14041;BME280;7095;51.388;6.196;2023-04-06T07:20:23;54123.41;;;-145.32;100.00
14041;BME280;7095;51.388;6.196;2023-04-06T07:22:52;54033.94;;;-145.32;100.00
14041;BME280;7095;51.388;6.196;2023-04-06T07:25:21;53996.16;;;-145.32;100.00
14041;BME280;7095;51.388;6.196;2023-04-06T07:27:55;54018.03;;;-145.32;100.00
14041;BME280;7095;51.388;6.196;2023-04-06T07:30:25;53986.22;;;-145.32;100.00
14041;BME280;7095;51.388;6.196;2023-04-06T07:32:58;53990.19;;;-145.32;100.00
14041;BME280;7095;51.388;6.196;2023-04-06T07:35:28;53986.22;;;-145.32;100.00
14041;BME280;7095;51.388;6.196;2023-04-06T07:37:57;53972.28;;;-145.32;100.00
14041;BME280;7095;51.388;6.196;2023-04-06T07:40:26;53948.44;;;-145.32;100.00
14041;BME280;7095;51.388;6.196;2023-04-06T07:42:58;53972.28;;;-145.32;100.00
14041;BME280;7095;51.388;6.196;2023-04-06T07:45:27;53944.47;;;-145.32;100.00
14041;BME280;7095;51.388;6.196;2023-04-06T07:47:56;53932.53;;;-145.32;100.00
14041;BME280;7095;51.388;6.196;2023-04-06T07:50:26;53932.53;;;-145.32;100.00
14041;BME280;7095;51.388;6.196;2023-04-06T07:52:56;53930.53;;;-145.32;100.00
14041;BME280;7095;51.388;6.196;2023-04-06T07:55:25;53904.69;;;-145.32;100.00
14041;BME280;7095;51.388;6.196;2023-04-06T07:57:53;53880.84;;;-145.32;100.00
14041;BME280;7095;51.388;6.196;2023-04-06T08:00:24;53882.81;;;-145.32;100.00
14041;BME280;7095;51.388;6.196;2023-04-06T08:02:52;53876.84;;;-145.32;100.00
14041;BME280;7095;51.388;6.196;2023-04-06T08:05:21;53853.00;;;-145.32;100.00
14041;BME280;7095;51.388;6.196;2023-04-06T08:07:50;53841.06;;;-145.32;100.00
14041;BME280;7095;51.388;6.196;2023-04-06T08:10:18;53847.03;;;-145.32;100.00
14041;BME280;7095;51.388;6.196;2023-04-06T08:12:47;53841.06;;;-145.32;100.00
14041;BME280;7095;51.388;6.196;2023-04-06T08:15:16;53811.25;;;-145.32;100.00
14041;BME280;7095;51.388;6.196;2023-04-06T08:17:47;53839.06;;;-145.32;100.00
14041;BME280;7095;51.388;6.196;2023-04-06T08:20:16;53815.22;;;-145.32;100.00
14041;BME280;7095;51.388;6.196;2023-04-06T08:22:45;53793.34;;;-145.32;100.00
14041;BME280;7095;51.388;6.196;2023-04-06T08:25:13;53771.47;;;-145.32;100.00
14041;BME280;7095;51.388;6.196;2023-04-06T08:27:42;53789.38;;;-145.32;100.00
14041;BME280;7095;51.388;6.196;2023-04-06T08:30:11;53761.53;;;-145.32;100.00
14041;BME280;7095;51.388;6.196;2023-04-06T08:32:42;53761.53;;;-145.32;100.00
14041;BME280;7095;51.388;6.196;2023-04-06T08:35:12;53769.50;;;-145.32;100.00
14041;BME280;7095;51.388;6.196;2023-04-06T08:37:40;53745.63;;;-145.32;100.00
14041;BME280;7095;51.388;6.196;2023-04-06T08:40:10;53741.66;;;-145.32;100.00
14041;BME280;7095;51.388;6.196;2023-04-06T08:42:40;53755.56;;;-145.32;100.00
14041;BME280;7095;51.388;6.196;2023-04-06T08:45:14;53725.75;;;-145.32;100.00
14041;BME280;7095;51.388;6.196;2023-04-06T08:47:45;53731.72;;;-145.32;100.00
14041;BME280;7095;51.388;6.196;2023-04-06T08:50:17;53725.75;;;-145.32;100.00
14041;BME280;7095;51.388;6.196;2023-04-06T08:52:47;53719.78;;;-145.32;100.00
14041;BME280;7095;51.388;6.196;2023-04-06T08:55:16;53709.84;;;-145.32;100.00
14041;BME280;7095;51.388;6.196;2023-04-06T08:57:45;53715.81;;;-145.32;100.00
14041;BME280;7095;51.388;6.196;2023-04-06T09:00:15;53678.03;;;-145.32;100.00
14041;BME280;7095;51.388;6.196;2023-04-06T09:02:45;53658.16;;;-145.32;100.00
14041;BME280;7095;51.388;6.196;2023-04-06T09:05:16;53686.00;;;-145.32;100.00
14041;BME280;7095;51.388;6.196;2023-04-06T09:07:45;53697.91;;;-145.32;100.00
14041;BME280;7095;51.388;6.196;2023-04-06T09:10:13;53650.19;;;-145.32;100.00
14041;BME280;7095;51.388;6.196;2023-04-06T09:12:44;53642.25;;;-145.32;98.49
14041;BME280;7095;51.388;6.196;2023-04-06T09:15:18;53642.25;;;-145.32;89.89
14041;BME280;7095;51.388;6.196;2023-04-06T09:17:50;53658.16;;;-145.32;92.26
14041;BME280;7095;51.388;6.196;2023-04-06T09:20:24;53654.19;;;-145.32;88.34
14041;BME280;7095;51.388;6.196;2023-04-06T09:22:55;53624.34;;;-145.32;84.91
14041;BME280;7095;51.388;6.196;2023-04-06T09:25:24;53636.28;;;-145.32;86.06
14041;BME280;7095;51.388;6.196;2023-04-06T09:28:00;53640.25;;;-145.32;84.95
14041;BME280;7095;51.388;6.196;2023-04-06T09:30:29;53624.34;;;-145.32;84.10
14041;BME280;7095;51.388;6.196;2023-04-06T09:32:58;53612.44;;;-145.32;85.58
14041;BME280;7095;51.388;6.196;2023-04-06T09:35:29;53640.25;;;-145.32;84.80
14041;BME280;7095;51.388;6.196;2023-04-06T09:37:58;53596.53;;;-145.32;81.92
14041;BME280;7095;51.388;6.196;2023-04-06T09:40:27;53602.47;;;-145.32;82.09
14041;BME280;7095;51.388;6.196;2023-04-06T09:43:00;53612.44;;;-145.32;85.36
14041;BME280;7095;51.388;6.196;2023-04-06T09:45:32;53612.44;;;-145.32;84.41
14041;BME280;7095;51.388;6.196;2023-04-06T09:48:01;53602.47;;;-145.32;84.36
14041;BME280;7095;51.388;6.196;2023-04-06T09:50:31;53556.75;;;-145.32;83.08
14041;BME280;7095;51.388;6.196;2023-04-06T09:53:02;53564.72;;;-145.32;83.04
14041;BME280;7095;51.388;6.196;2023-04-06T09:55:34;53596.53;;;-145.32;76.66
14041;BME280;7095;51.388;6.196;2023-04-06T09:58:05;53598.50;;;-145.32;73.45
14041;BME280;7095;51.388;6.196;2023-04-06T10:00:42;53558.75;;;-145.32;66.92
14041;BME280;7095;51.388;6.196;2023-04-06T10:03:17;53592.53;;;-145.32;66.06
14041;BME280;7095;51.388;6.196;2023-04-06T10:05:54;53584.59;;;-145.32;61.67
14041;BME280;7095;51.388;6.196;2023-04-06T10:08:27;53566.69;;;-145.32;60.01
14041;BME280;7095;51.388;6.196;2023-04-06T10:10:59;53614.41;;;-145.32;61.47
14041;BME280;7095;51.388;6.196;2023-04-06T10:13:28;53530.91;;;-145.32;60.44
14041;BME280;7095;51.388;6.196;2023-04-06T10:15:59;53616.41;;;-145.32;59.53
14041;BME280;7095;51.388;6.196;2023-04-06T10:18:29;53544.81;;;-145.32;62.40
14041;BME280;7095;51.388;6.196;2023-04-06T10:21:03;53582.59;;;-145.32;61.47
14041;BME280;7095;51.388;6.196;2023-04-06T10:23:33;53578.63;;;-145.32;59.40
14041;BME280;7095;51.388;6.196;2023-04-06T10:26:03;53560.72;;;-145.32;61.91
14041;BME280;7095;51.388;6.196;2023-04-06T10:28:33;53554.78;;;-145.32;57.34
14041;BME280;7095;51.388;6.196;2023-04-06T10:31:05;53554.78;;;-145.32;59.35
14041;BME280;7095;51.388;6.196;2023-04-06T10:33:34;53552.78;;;-145.32;60.41
14041;BME280;7095;51.388;6.196;2023-04-06T10:36:11;53538.88;;;-145.32;60.63
14041;BME280;7095;51.388;6.196;2023-04-06T10:38:41;53570.69;;;-145.32;63.16
14041;BME280;7095;51.388;6.196;2023-04-06T10:41:11;53566.69;;;-145.32;61.61
14041;BME280;7095;51.388;6.196;2023-04-06T10:43:41;53588.56;;;-145.32;61.16
14041;BME280;7095;51.388;6.196;2023-04-06T10:46:10;53558.75;;;-145.32;63.77
14041;BME280;7095;51.388;6.196;2023-04-06T10:48:40;53572.66;;;-145.32;63.63
14041;BME280;7095;51.388;6.196;2023-04-06T10:51:12;53554.78;;;-145.32;61.18
14041;BME280;7095;51.388;6.196;2023-04-06T10:53:42;53548.81;;;-145.32;62.01
14041;BME280;7095;51.388;6.196;2023-04-06T10:56:13;53558.75;;;-145.32;61.50
14041;BME280;7095;51.388;6.196;2023-04-06T10:58:45;53556.75;;;-145.32;59.52
14041;BME280;7095;51.388;6.196;2023-04-06T11:01:15;53532.91;;;-145.32;62.63
14041;BME280;7095;51.388;6.196;2023-04-06T11:03:45;53522.97;;;-145.32;61.23
14041;BME280;7095;51.388;6.196;2023-04-06T11:06:22;53524.94;;;-145.32;56.73
14041;BME280;7095;51.388;6.196;2023-04-06T11:08:52;53546.81;;;-145.32;58.00
14041;BME280;7095;51.388;6.196;2023-04-06T11:11:22;53532.91;;;-145.32;57.32
14041;BME280;7095;51.388;6.196;2023-04-06T11:13:53;53554.78;;;-145.32;57.73
14041;BME280;7095;51.388;6.196;2023-04-06T11:16:24;53538.88;;;-145.32;57.96
14041;BME280;7095;51.388;6.196;2023-04-06T11:18:54;53520.97;;;-145.32;57.63
14041;BME280;7095;51.388;6.196;2023-04-06T11:21:35;53536.88;;;-145.32;56.13
14041;BME280;7095;51.388;6.196;2023-04-06T11:24:08;53536.88;;;-145.32;57.10
14041;BME280;7095;51.388;6.196;2023-04-06T11:26:38;53522.97;;;-145.32;56.91
14041;BME280;7095;51.388;6.196;2023-04-06T11:29:07;53552.78;;;-145.32;58.01
14041;BME280;7095;51.388;6.196;2023-04-06T11:31:40;53503.06;;;-145.32;59.06
14041;BME280;7095;51.388;6.196;2023-04-06T11:34:15;53556.75;;;-145.32;58.05
14041;BME280;7095;51.388;6.196;2023-04-06T11:36:47;53530.91;;;-145.32;59.49
14041;BME280;7095;51.388;6.196;2023-04-06T11:39:19;53520.97;;;-145.32;60.90
14041;BME280;7095;51.388;6.196;2023-04-06T11:41:48;53530.91;;;-145.32;62.47
14041;BME280;7095;51.388;6.196;2023-04-06T11:44:31;53610.44;;;-145.32;63.68
14041;BME280;7095;51.388;6.196;2023-04-06T11:47:01;53570.69;;;-145.32;64.75
14041;BME280;7095;51.388;6.196;2023-04-06T11:49:31;53592.53;;;-145.32;66.95
14041;BME280;7095;51.388;6.196;2023-04-06T11:52:01;53562.72;;;-145.32;67.15
14041;BME280;7095;51.388;6.196;2023-04-06T11:54:31;53600.50;;;-145.32;70.84
14041;BME280;7095;51.388;6.196;2023-04-06T11:57:01;53548.81;;;-145.32;77.28
14041;BME280;7095;51.388;6.196;2023-04-06T11:59:30;53598.50;;;-145.32;78.94
14041;BME280;7095;51.388;6.196;2023-04-06T12:01:59;53592.53;;;-145.32;82.80
14041;BME280;7095;51.388;6.196;2023-04-06T12:04:29;53546.81;;;-145.32;84.35
14041;BME280;7095;51.388;6.196;2023-04-06T12:06:58;53586.56;;;-145.32;86.15
14041;BME280;7095;51.388;6.196;2023-04-06T12:09:29;53604.47;;;-145.32;91.05
14041;BME280;7095;51.388;6.196;2023-04-06T12:11:57;53626.34;;;-145.32;96.34
14041;BME280;7095;51.388;6.196;2023-04-06T12:14:26;53582.59;;;-145.32;100.00
14041;BME280;7095;51.388;6.196;2023-04-06T12:16:54;53626.34;;;-145.32;100.00
14041;BME280;7095;51.388;6.196;2023-04-06T12:19:23;53634.28;;;-145.32;100.00
14041;BME280;7095;51.388;6.196;2023-04-06T12:21:53;53646.22;;;-145.32;100.00
14041;BME280;7095;51.388;6.196;2023-04-06T12:24:22;53676.03;;;-145.32;100.00
14041;BME280;7095;51.388;6.196;2023-04-06T12:26:52;53680.03;;;-145.32;100.00
14041;BME280;7095;51.388;6.196;2023-04-06T12:29:35;53693.94;;;-145.32;100.00
14041;BME280;7095;51.388;6.196;2023-04-06T12:32:04;53709.84;;;-145.32;100.00
14041;BME280;7095;51.388;6.196;2023-04-06T12:34:33;53697.91;;;-145.32;100.00
14041;BME280;7095;51.388;6.196;2023-04-06T12:37:02;53749.59;;;-145.32;100.00
14041;BME280;7095;51.388;6.196;2023-04-06T12:39:31;53765.50;;;-145.32;100.00
14041;BME280;7095;51.388;6.196;2023-04-06T12:42:01;53805.28;;;-145.32;100.00
14041;BME280;7095;51.388;6.196;2023-04-06T12:44:30;53849.03;;;-145.32;100.00
14041;BME280;7095;51.388;6.196;2023-04-06T12:46:59;53896.75;;;-145.32;100.00
14041;BME280;7095;51.388;6.196;2023-04-06T12:49:28;53964.34;;;-145.32;100.00
14041;BME280;7095;51.388;6.196;2023-04-06T12:51:58;54002.13;;;-145.32;100.00
14041;BME280;7095;51.388;6.196;2023-04-06T12:54:27;54057.78;;;-145.32;100.00
14041;BME280;7095;51.388;6.196;2023-04-06T12:56:56;54123.41;;;-145.32;100.00
14041;BME280;7095;51.388;6.196;2023-04-06T12:59:26;54191.03;;;-145.32;100.00
14041;BME280;7095;51.388;6.196;2023-04-06T13:01:55;54218.84;;;-145.32;100.00
14041;BME280;7095;51.388;6.196;2023-04-06T13:04:23;54290.44;;;-145.32;100.00